sensor_id;sensor_type;location;lat;lon;timestamp;pressure;altitude;pressure_sealevel;temperature;humidity
39593;BME280;25286;48.870;9.084;2022-08-21T00:00:46;98091.53;;;19.13;56.41
39593;BME280;25286;48.870;9.084;2022-08-21T00:03:13;98086.28;;;19.11;56.90
39593;BME280;25286;48.870;9.084;2022-08-21T00:05:42;98090.25;;;19.05;56.82
39593;BME280;25286;48.870;9.084;2022-08-21T00:08:08;98088.19;;;19.16;56.70
39593;BME280;25286;48.870;9.084;2022-08-21T00:10:34;98090.34;;;19.19;57.00
39593;BME280;25286;48.870;9.084;2022-08-21T00:13:02;98086.72;;;19.18;57.36
39593;BME280;25286;48.870;9.084;2022-08-21T00:15:29;98088.63;;;19.23;57.11
39593;BME280;25286;48.870;9.084;2022-08-21T00:17:56;98088.41;;;18.95;57.66
39593;BME280;25286;48.870;9.084;2022-08-21T00:20:23;98089.03;;;18.92;57.93
39593;BME280;25286;48.870;9.084;2022-08-21T00:22:49;98091.38;;;19.04;57.80
39593;BME280;25286;48.870;9.084;2022-08-21T00:25:15;98085.63;;;18.95;58.04
39593;BME280;25286;48.870;9.084;2022-08-21T00:27:41;98086.47;;;18.72;58.33
39593;BME280;25286;48.870;9.084;2022-08-21T00:30:09;98085.47;;;18.87;58.31
39593;BME280;25286;48.870;9.084;2022-08-21T00:32:37;98085.25;;;18.83;58.40
39593;BME280;25286;48.870;9.084;2022-08-21T00:35:04;98078.72;;;18.93;58.26
39593;BME280;25286;48.870;9.084;2022-08-21T00:37:30;98087.13;;;19.12;57.61
39593;BME280;25286;48.870;9.084;2022-08-21T00:39:56;98081.59;;;18.88;57.70
39593;BME280;25286;48.870;9.084;2022-08-21T00:42:21;98086.53;;;18.91;58.19
39593;BME280;25286;48.870;9.084;2022-08-21T00:44:48;98084.13;;;18.84;58.47
39593;BME280;25286;48.870;9.084;2022-08-21T00:47:16;98079.31;;;18.66;58.56
39593;BME280;25286;48.870;9.084;2022-08-21T00:49:42;98083.84;;;18.57;59.39
39593;BME280;25286;48.870;9.084;2022-08-21T00:52:10;98076.59;;;18.61;59.38
39593;BME280;25286;48.870;9.084;2022-08-21T00:54:39;98067.72;;;18.83;58.50
39593;BME280;25286;48.870;9.084;2022-08-21T00:57:09;98073.19;;;18.64;58.94
39593;BME280;25286;48.870;9.084;2022-08-21T00:59:37;98077.81;;;18.78;59.22
39593;BME280;25286;48.870;9.084;2022-08-21T01:02:05;98075.38;;;18.43;59.85
39593;BME280;25286;48.870;9.084;2022-08-21T01:04:33;98071.22;;;18.40;60.27
39593;BME280;25286;48.870;9.084;2022-08-21T01:06:59;98070.63;;;18.72;59.73
39593;BME280;25286;48.870;9.084;2022-08-21T01:09:24;98069.84;;;18.67;59.53
39593;BME280;25286;48.870;9.084;2022-08-21T01:11:50;98069.50;;;18.73;59.70
39593;BME280;25286;48.870;9.084;2022-08-21T01:14:16;98071.44;;;18.73;59.07
39593;BME280;25286;48.870;9.084;2022-08-21T01:16:46;98071.59;;;18.58;59.41
39593;BME280;25286;48.870;9.084;2022-08-21T01:19:13;98072.78;;;18.51;59.65
39593;BME280;25286;48.870;9.084;2022-08-21T01:21:40;98075.78;;;18.55;59.54
39593;BME280;25286;48.870;9.084;2022-08-21T01:24:06;98075.38;;;18.43;59.76
39593;BME280;25286;48.870;9.084;2022-08-21T01:26:33;98074.50;;;18.47;59.70
39593;BME280;25286;48.870;9.084;2022-08-21T01:31:37;98067.50;;;18.50;59.63
39593;BME280;25286;48.870;9.084;2022-08-21T01:34:04;98077.66;;;18.36;60.20
39593;BME280;25286;48.870;9.084;2022-08-21T01:36:30;98071.22;;;18.40;59.67
39593;BME280;25286;48.870;9.084;2022-08-21T01:38:56;98066.88;;;18.34;60.04
39593;BME280;25286;48.870;9.084;2022-08-21T01:41:22;98060.03;;;18.21;60.35
39593;BME280;25286;48.870;9.084;2022-08-21T01:43:48;98062.63;;;18.13;60.52
39593;BME280;25286;48.870;9.084;2022-08-21T01:46:13;98066.84;;;18.10;60.73
39593;BME280;25286;48.870;9.084;2022-08-21T01:48:39;98068.72;;;18.15;60.71
39593;BME280;25286;48.870;9.084;2022-08-21T01:51:05;98068.53;;;18.06;61.12
39593;BME280;25286;48.870;9.084;2022-08-21T01:53:32;98064.44;;;17.98;61.24
39593;BME280;25286;48.870;9.084;2022-08-21T01:56:01;98059.94;;;18.02;61.19
39593;BME280;25286;48.870;9.084;2022-08-21T01:58:28;98061.53;;;18.09;61.06
39593;BME280;25286;48.870;9.084;2022-08-21T02:00:54;98053.31;;;17.98;61.21
39593;BME280;25286;48.870;9.084;2022-08-21T02:03:19;98066.50;;;17.83;62.04
39593;BME280;25286;48.870;9.084;2022-08-21T02:05:45;98065.38;;;17.84;61.89
39593;BME280;25286;48.870;9.084;2022-08-21T02:08:11;98053.41;;;17.88;61.86
39593;BME280;25286;48.870;9.084;2022-08-21T02:10:36;98047.63;;;17.85;61.97
39593;BME280;25286;48.870;9.084;2022-08-21T02:13:02;98052.66;;;17.72;62.49
39593;BME280;25286;48.870;9.084;2022-08-21T02:15:29;98055.22;;;17.69;62.69
39593;BME280;25286;48.870;9.084;2022-08-21T02:17:57;98051.88;;;17.67;62.77
39593;BME280;25286;48.870;9.084;2022-08-21T02:20:26;98047.19;;;17.62;63.15
39593;BME280;25286;48.870;9.084;2022-08-21T02:22:53;98046.09;;;17.63;62.88
39593;BME280;25286;48.870;9.084;2022-08-21T02:25:20;98042.81;;;17.56;63.10
39593;BME280;25286;48.870;9.084;2022-08-21T02:27:46;98037.88;;;17.48;63.68
39593;BME280;25286;48.870;9.084;2022-08-21T02:30:15;98044.44;;;17.62;63.08
39593;BME280;25286;48.870;9.084;2022-08-21T02:32:41;98040.88;;;17.57;63.25
39593;BME280;25286;48.870;9.084;2022-08-21T02:35:08;98045.03;;;17.54;63.30
39593;BME280;25286;48.870;9.084;2022-08-21T02:37:43;98043.69;;;17.51;nan
39593;BME280;25286;48.870;9.084;2022-08-21T02:40:09;98043.13;;;17.49;63.41
39593;BME280;25286;48.870;9.084;2022-08-21T02:42:36;98041.00;;;17.36;63.93
39593;BME280;25286;48.870;9.084;2022-08-21T02:45:03;98035.47;;;17.36;63.83
39593;BME280;25286;48.870;9.084;2022-08-21T02:47:28;98042.72;;;17.32;64.13
39593;BME280;25286;48.870;9.084;2022-08-21T02:49:54;98039.34;;;17.35;64.00
39593;BME280;25286;48.870;9.084;2022-08-21T02:52:20;98047.16;;;17.33;64.05
39593;BME280;25286;48.870;9.084;2022-08-21T02:54:47;98052.16;;;17.26;64.33
39593;BME280;25286;48.870;9.084;2022-08-21T02:57:13;98049.13;;;17.27;64.47
39593;BME280;25286;48.870;9.084;2022-08-21T02:59:39;98058.19;;;16.89;65.24
39593;BME280;25286;48.870;9.084;2022-08-21T03:02:06;98051.56;;;16.85;65.85
39593;BME280;25286;48.870;9.084;2022-08-21T03:04:31;98052.09;;;16.92;65.77
39593;BME280;25286;48.870;9.084;2022-08-21T03:06:57;98048.22;;;16.93;65.89
39593;BME280;25286;48.870;9.084;2022-08-21T03:09:23;98049.28;;;16.97;65.84
39593;BME280;25286;48.870;9.084;2022-08-21T03:11:50;98047.41;;;16.87;66.07
39593;BME280;25286;48.870;9.084;2022-08-21T03:14:17;98046.56;;;16.92;66.03
39593;BME280;25286;48.870;9.084;2022-08-21T03:16:43;98046.81;;;16.95;65.75
39593;BME280;25286;48.870;9.084;2022-08-21T03:19:09;98038.81;;;16.89;66.17
39593;BME280;25286;48.870;9.084;2022-08-21T03:21:35;98036.84;;;16.89;65.81
39593;BME280;25286;48.870;9.084;2022-08-21T03:24:01;98048.47;;;16.96;65.87
39593;BME280;25286;48.870;9.084;2022-08-21T03:26:27;98039.84;;;17.03;65.71
39593;BME280;25286;48.870;9.084;2022-08-21T03:28:52;98038.50;;;16.90;65.73
39593;BME280;25286;48.870;9.084;2022-08-21T03:31:18;98043.25;;;16.85;65.91
39593;BME280;25286;48.870;9.084;2022-08-21T03:33:44;98054.03;;;16.96;65.84
39593;BME280;25286;48.870;9.084;2022-08-21T03:36:10;98039.59;;;16.94;65.74
39593;BME280;25286;48.870;9.084;2022-08-21T03:38:36;98051.75;;;17.03;65.48
39593;BME280;25286;48.870;9.084;2022-08-21T03:41:03;98041.81;;;16.97;65.73
39593;BME280;25286;48.870;9.084;2022-08-21T03:43:30;98045.72;;;16.91;65.73
39593;BME280;25286;48.870;9.084;2022-08-21T03:45:55;98049.63;;;16.85;65.93
39593;BME280;25286;48.870;9.084;2022-08-21T03:48:21;98048.22;;;16.93;65.59
39593;BME280;25286;48.870;9.084;2022-08-21T03:50:47;98050.97;;;16.93;65.36
39593;BME280;25286;48.870;9.084;2022-08-21T03:53:15;98045.16;;;16.89;65.74
39593;BME280;25286;48.870;9.084;2022-08-21T03:55:41;98043.59;;;16.73;66.21
39593;BME280;25286;48.870;9.084;2022-08-21T03:58:07;98043.59;;;16.73;66.72
39593;BME280;25286;48.870;9.084;2022-08-21T04:00:33;98057.19;;;16.59;67.09
39593;BME280;25286;48.870;9.084;2022-08-21T04:02:59;98065.22;;;16.56;67.28
39593;BME280;25286;48.870;9.084;2022-08-21T04:05:25;98062.47;;;16.50;67.42
39593;BME280;25286;48.870;9.084;2022-08-21T04:07:59;98066.91;;;16.46;67.52
39593;BME280;25286;48.870;9.084;2022-08-21T04:10:26;98064.75;;;16.33;67.99
39593;BME280;25286;48.870;9.084;2022-08-21T04:12:53;98063.03;;;16.47;67.80
39593;BME280;25286;48.870;9.084;2022-08-21T04:15:20;98068.50;;;16.63;67.38
39593;BME280;25286;48.870;9.084;2022-08-21T04:17:46;98070.47;;;16.62;67.51
39593;BME280;25286;48.870;9.084;2022-08-21T04:20:14;98072.44;;;16.57;67.91
39593;BME280;25286;48.870;9.084;2022-08-21T04:22:40;98077.97;;;16.57;67.91
39593;BME280;25286;48.870;9.084;2022-08-21T04:25:06;98078.78;;;16.57;67.86
39593;BME280;25286;48.870;9.084;2022-08-21T04:27:33;98077.97;;;16.51;68.08
39593;BME280;25286;48.870;9.084;2022-08-21T04:29:59;98085.19;;;16.52;68.35
39593;BME280;25286;48.870;9.084;2022-08-21T04:32:26;98092.13;;;16.45;68.47
39593;BME280;25286;48.870;9.084;2022-08-21T04:35:03;98091.28;;;16.49;68.69
39593;BME280;25286;48.870;9.084;2022-08-21T04:37:29;98092.38;;;16.48;68.51
39593;BME280;25286;48.870;9.084;2022-08-21T04:39:55;98085.44;;;16.56;68.38
39593;BME280;25286;48.870;9.084;2022-08-21T04:42:25;98099.56;;;16.65;68.03
39593;BME280;25286;48.870;9.084;2022-08-21T04:44:51;98094.53;;;16.67;68.01
39593;BME280;25286;48.870;9.084;2022-08-21T04:47:17;98089.59;;;16.64;68.12
39593;BME280;25286;48.870;9.084;2022-08-21T04:49:44;98094.03;;;16.60;68.21
39593;BME280;25286;48.870;9.084;2022-08-21T04:52:11;98092.97;;;16.40;68.58
39593;BME280;25286;48.870;9.084;2022-08-21T04:54:38;98091.28;;;16.44;68.85
39593;BME280;25286;48.870;9.084;2022-08-21T04:57:06;98099.59;;;16.44;68.65
39593;BME280;25286;48.870;9.084;2022-08-21T04:59:43;98099.00;;;16.58;68.39
39593;BME280;25286;48.870;9.084;2022-08-21T05:02:11;98093.22;;;16.59;68.09
39593;BME280;25286;48.870;9.084;2022-08-21T05:04:42;98099.28;;;16.61;68.23
39593;BME280;25286;48.870;9.084;2022-08-21T05:07:12;98099.56;;;16.65;68.14
39593;BME280;25286;48.870;9.084;2022-08-21T05:09:38;98099.00;;;16.63;68.04
39593;BME280;25286;48.870;9.084;2022-08-21T05:12:04;98103.47;;;16.59;68.20
39593;BME280;25286;48.870;9.084;2022-08-21T05:14:30;98098.16;;;16.67;68.13
39593;BME280;25286;48.870;9.084;2022-08-21T05:16:56;98099.53;;;16.70;68.02
39593;BME280;25286;48.870;9.084;2022-08-21T05:19:22;98104.22;;;16.85;67.62
39593;BME280;25286;48.870;9.084;2022-08-21T05:21:48;98101.19;;;16.76;67.71
39593;BME280;25286;48.870;9.084;2022-08-21T05:24:15;98106.72;;;16.71;68.06
39593;BME280;25286;48.870;9.084;2022-08-21T05:26:41;98106.50;;;16.57;68.63
39593;BME280;25286;48.870;9.084;2022-08-21T05:29:07;98114.78;;;16.62;68.79
39593;BME280;25286;48.870;9.084;2022-08-21T05:31:32;98122.84;;;16.64;69.00
39593;BME280;25286;48.870;9.084;2022-08-21T05:33:58;98120.34;;;16.57;69.44
39593;BME280;25286;48.870;9.084;2022-08-21T05:36:24;98119.81;;;16.50;69.62
39593;BME280;25286;48.870;9.084;2022-08-21T05:38:50;98126.41;;;16.69;69.41
39593;BME280;25286;48.870;9.084;2022-08-21T05:41:16;98123.94;;;16.78;69.15
39593;BME280;25286;48.870;9.084;2022-08-21T05:43:41;98126.13;;;16.86;69.17
39593;BME280;25286;48.870;9.084;2022-08-21T05:46:07;98129.44;;;16.88;69.12
39593;BME280;25286;48.870;9.084;2022-08-21T05:48:34;98130.50;;;16.97;68.76
39593;BME280;25286;48.870;9.084;2022-08-21T05:51:09;98127.41;;;17.04;68.61
39593;BME280;25286;48.870;9.084;2022-08-21T05:53:36;98126.53;;;17.19;68.39
39593;BME280;25286;48.870;9.084;2022-08-21T05:56:02;98126.44;;;17.39;67.53
39593;BME280;25286;48.870;9.084;2022-08-21T05:58:29;98127.97;;;17.61;66.93
39593;BME280;25286;48.870;9.084;2022-08-21T06:00:55;98131.88;;;17.60;66.66
39593;BME280;25286;48.870;9.084;2022-08-21T06:03:28;98130.75;;;17.61;66.67
39593;BME280;25286;48.870;9.084;2022-08-21T06:05:54;98132.28;;;17.82;66.37
39593;BME280;25286;48.870;9.084;2022-08-21T06:08:21;98125.59;;;17.88;65.94
39593;BME280;25286;48.870;9.084;2022-08-21T06:10:49;98127.97;;;18.00;65.96
39593;BME280;25286;48.870;9.084;2022-08-21T06:13:16;98127.06;;;18.10;65.52
39593;BME280;25286;48.870;9.084;2022-08-21T06:15:41;98129.84;;;18.10;65.65
39593;BME280;25286;48.870;9.084;2022-08-21T06:18:07;98130.03;;;18.18;65.87
39593;BME280;25286;48.870;9.084;2022-08-21T06:20:33;98133.75;;;18.09;66.21
39593;BME280;25286;48.870;9.084;2022-08-21T06:22:59;98128.69;;;18.16;66.22
39593;BME280;25286;48.870;9.084;2022-08-21T06:25:25;98127.81;;;18.20;66.09
39593;BME280;25286;48.870;9.084;2022-08-21T06:27:51;98124.31;;;18.39;65.78
39593;BME280;25286;48.870;9.084;2022-08-21T06:30:17;98127.28;;;18.47;64.98
39593;BME280;25286;48.870;9.084;2022-08-21T06:32:43;98125.22;;;18.58;64.68
39593;BME280;25286;48.870;9.084;2022-08-21T06:35:09;98130.72;;;18.63;65.04
39593;BME280;25286;48.870;9.084;2022-08-21T06:37:35;98119.00;;;18.95;64.08
39593;BME280;25286;48.870;9.084;2022-08-21T06:40:03;98121.38;;;19.07;63.46
39593;BME280;25286;48.870;9.084;2022-08-21T06:42:29;98123.53;;;19.10;63.34
39593;BME280;25286;48.870;9.084;2022-08-21T06:44:54;98118.84;;;19.11;63.17
39593;BME280;25286;48.870;9.084;2022-08-21T06:47:22;98111.84;;;19.13;62.58
39593;BME280;25286;48.870;9.084;2022-08-21T06:49:47;98118.59;;;19.07;62.33
39593;BME280;25286;48.870;9.084;2022-08-21T06:52:13;98113.41;;;19.19;62.20
39593;BME280;25286;48.870;9.084;2022-08-21T06:54:40;98119.16;;;19.28;61.59
39593;BME280;25286;48.870;9.084;2022-08-21T06:57:06;98116.19;;;19.43;61.61
39593;BME280;25286;48.870;9.084;2022-08-21T06:59:32;98116.84;;;19.54;61.14
39593;BME280;25286;48.870;9.084;2022-08-21T07:01:59;98116.34;;;19.52;61.21
39593;BME280;25286;48.870;9.084;2022-08-21T07:04:24;98117.28;;;19.66;60.93
39593;BME280;25286;48.870;9.084;2022-08-21T07:06:50;98112.34;;;19.58;60.50
39593;BME280;25286;48.870;9.084;2022-08-21T07:09:16;98115.13;;;19.39;60.92
39593;BME280;25286;48.870;9.084;2022-08-21T07:11:42;98104.66;;;19.31;60.71
39593;BME280;25286;48.870;9.084;2022-08-21T07:14:08;98107.59;;;19.59;60.31
39593;BME280;25286;48.870;9.084;2022-08-21T07:16:34;98117.28;;;19.42;60.55
39593;BME280;25286;48.870;9.084;2022-08-21T07:19:00;98116.50;;;19.61;61.05
39593;BME280;25286;48.870;9.084;2022-08-21T07:21:26;98108.91;;;19.66;60.47
39593;BME280;25286;48.870;9.084;2022-08-21T07:23:52;98123.25;;;19.54;59.99
39593;BME280;25286;48.870;9.084;2022-08-21T07:26:20;98114.56;;;19.56;60.67
39593;BME280;25286;48.870;9.084;2022-08-21T07:28:47;98114.06;;;19.35;61.09
39593;BME280;25286;48.870;9.084;2022-08-21T07:31:17;98113.16;;;19.59;60.34
39593;BME280;25286;48.870;9.084;2022-08-21T07:33:43;98105.66;;;19.78;59.96
39593;BME280;25286;48.870;9.084;2022-08-21T07:36:09;98113.19;;;19.77;59.66
39593;BME280;25286;48.870;9.084;2022-08-21T07:38:35;98113.34;;;19.86;59.52
39593;BME280;25286;48.870;9.084;2022-08-21T07:41:02;98107.50;;;20.01;58.96
39593;BME280;25286;48.870;9.084;2022-08-21T07:43:28;98105.63;;;19.97;59.29
39593;BME280;25286;48.870;9.084;2022-08-21T07:45:55;98106.78;;;19.96;59.37
39593;BME280;25286;48.870;9.084;2022-08-21T07:48:21;98104.66;;;19.88;59.26
39593;BME280;25286;48.870;9.084;2022-08-21T07:50:47;98099.78;;;19.98;58.41
39593;BME280;25286;48.870;9.084;2022-08-21T07:53:13;98103.53;;;20.08;58.89
39593;BME280;25286;48.870;9.084;2022-08-21T07:55:39;98100.25;;;20.19;58.42
39593;BME280;25286;48.870;9.084;2022-08-21T07:58:05;98096.72;;;20.14;58.10
39593;BME280;25286;48.870;9.084;2022-08-21T08:00:51;98094.44;;;20.16;58.23
39593;BME280;25286;48.870;9.084;2022-08-21T08:03:40;98096.13;;;20.17;57.84
39593;BME280;25286;48.870;9.084;2022-08-21T08:06:18;98095.25;;;20.35;57.72
39593;BME280;25286;48.870;9.084;2022-08-21T08:08:50;98095.16;;;20.40;57.55
39593;BME280;25286;48.870;9.084;2022-08-21T08:11:22;98094.16;;;20.50;56.93
39593;BME280;25286;48.870;9.084;2022-08-21T08:13:55;98090.25;;;20.65;57.26
39593;BME280;25286;48.870;9.084;2022-08-21T08:19:24;98081.50;;;20.85;56.74
39593;BME280;25286;48.870;9.084;2022-08-21T08:21:52;98081.56;;;20.52;57.00
39593;BME280;25286;48.870;9.084;2022-08-21T08:24:21;98076.63;;;20.77;56.59
39593;BME280;25286;48.870;9.084;2022-08-21T08:26:54;98076.09;;;21.02;56.60
39593;BME280;25286;48.870;9.084;2022-08-21T08:29:24;98079.31;;;21.10;56.91
39593;BME280;25286;48.870;9.084;2022-08-21T08:31:53;98070.31;;;21.13;56.48
39593;BME280;25286;48.870;9.084;2022-08-21T08:34:25;98075.34;;;21.24;56.66
39593;BME280;25286;48.870;9.084;2022-08-21T08:36:56;98080.84;;;21.16;56.65
39593;BME280;25286;48.870;9.084;2022-08-21T08:39:23;98073.38;;;21.25;56.42
39593;BME280;25286;48.870;9.084;2022-08-21T08:42:11;98067.50;;;21.26;56.67
39593;BME280;25286;48.870;9.084;2022-08-21T08:44:42;98063.38;;;21.24;56.65
39593;BME280;25286;48.870;9.084;2022-08-21T08:47:13;98070.56;;;21.52;56.45
39593;BME280;25286;48.870;9.084;2022-08-21T08:49:47;98068.13;;;21.73;56.48
39593;BME280;25286;48.870;9.084;2022-08-21T08:52:31;98052.03;;;21.56;56.41
39593;BME280;25286;48.870;9.084;2022-08-21T08:55:18;98052.88;;;21.79;54.87
39593;BME280;25286;48.870;9.084;2022-08-21T08:57:48;98054.41;;;21.63;53.91
39593;BME280;25286;48.870;9.084;2022-08-21T09:00:19;98047.44;;;21.74;55.16
39593;BME280;25286;48.870;9.084;2022-08-21T09:02:46;98052.22;;;21.38;54.32
39593;BME280;25286;48.870;9.084;2022-08-21T09:05:29;98053.69;;;21.57;53.88
39593;BME280;25286;48.870;9.084;2022-08-21T09:11:13;98054.66;;;21.98;53.29
39593;BME280;25286;48.870;9.084;2022-08-21T09:17:19;98040.22;;;22.18;52.81
39593;BME280;25286;48.870;9.084;2022-08-21T09:19:59;98040.28;;;22.27;52.16
39593;BME280;25286;48.870;9.084;2022-08-21T09:25:21;98040.84;;;22.15;50.00
39593;BME280;25286;48.870;9.084;2022-08-21T09:27:48;98034.13;;;22.47;49.65
39593;BME280;25286;48.870;9.084;2022-08-21T09:30:14;98034.94;;;22.48;49.70
39593;BME280;25286;48.870;9.084;2022-08-21T09:32:40;98031.03;;;22.57;48.85
39593;BME280;25286;48.870;9.084;2022-08-21T09:35:13;98028.56;;;22.56;47.84
39593;BME280;25286;48.870;9.084;2022-08-21T09:40:45;98034.31;;;22.51;48.41
39593;BME280;25286;48.870;9.084;2022-08-21T09:45:38;98041.44;;;22.66;47.88
39593;BME280;25286;48.870;9.084;2022-08-21T09:50:34;98030.94;;;22.40;47.74
39593;BME280;25286;48.870;9.084;2022-08-21T09:53:00;98017.81;;;22.49;48.04
39593;BME280;25286;48.870;9.084;2022-08-21T09:55:46;98010.66;;;22.66;47.42
39593;BME280;25286;48.870;9.084;2022-08-21T09:58:33;98012.38;;;22.84;48.50
39593;BME280;25286;48.870;9.084;2022-08-21T10:01:00;98017.06;;;22.97;48.00
39593;BME280;25286;48.870;9.084;2022-08-21T10:03:26;98017.31;;;22.87;47.22
39593;BME280;25286;48.870;9.084;2022-08-21T10:06:02;98017.50;;;22.91;47.25
39593;BME280;25286;48.870;9.084;2022-08-21T10:08:32;98020.94;;;22.88;46.85
39593;BME280;25286;48.870;9.084;2022-08-21T10:11:07;98009.69;;;23.19;48.07
39593;BME280;25286;48.870;9.084;2022-08-21T10:16:15;98000.41;;;22.92;47.65
39593;BME280;25286;48.870;9.084;2022-08-21T10:19:12;98014.47;;;23.27;47.64
39593;BME280;25286;48.870;9.084;2022-08-21T10:27:42;97995.22;;;23.34;46.62
39593;BME280;25286;48.870;9.084;2022-08-21T10:30:21;97989.44;;;23.39;46.25
39593;BME280;25286;48.870;9.084;2022-08-21T10:35:43;97989.91;;;23.50;46.23
39593;BME280;25286;48.870;9.084;2022-08-21T10:40:59;97989.25;;;23.27;45.40
39593;BME280;25286;48.870;9.084;2022-08-21T10:48:39;97979.22;;;23.34;45.55
39593;BME280;25286;48.870;9.084;2022-08-21T10:54:26;97977.09;;;23.57;45.03
39593;BME280;25286;48.870;9.084;2022-08-21T10:57:01;97976.78;;;23.50;44.98
39593;BME280;25286;48.870;9.084;2022-08-21T10:59:31;97969.66;;;23.53;44.41
39593;BME280;25286;48.870;9.084;2022-08-21T11:02:20;97971.50;;;23.83;44.33
39593;BME280;25286;48.870;9.084;2022-08-21T11:04:59;97965.22;;;23.61;44.46
39593;BME280;25286;48.870;9.084;2022-08-21T11:10:23;97971.69;;;23.70;43.75
39593;BME280;25286;48.870;9.084;2022-08-21T11:13:04;97960.09;;;23.89;44.11
39593;BME280;25286;48.870;9.084;2022-08-21T11:15:51;97960.09;;;23.63;43.71
39593;BME280;25286;48.870;9.084;2022-08-21T11:18:46;97968.53;;;23.80;44.23
39593;BME280;25286;48.870;9.084;2022-08-21T11:21:30;97960.13;;;23.80;44.12
39593;BME280;25286;48.870;9.084;2022-08-21T11:26:43;97950.00;;;24.05;43.46
39593;BME280;25286;48.870;9.084;2022-08-21T11:37:17;97950.16;;;24.08;41.58
39593;BME280;25286;48.870;9.084;2022-08-21T11:40:00;97947.28;;;24.26;41.15
39593;BME280;25286;48.870;9.084;2022-08-21T11:43:36;97941.41;;;24.10;41.75
39593;BME280;25286;48.870;9.084;2022-08-21T11:50:55;97938.97;;;24.00;42.12
39593;BME280;25286;48.870;9.084;2022-08-21T11:53:32;97928.69;;;24.13;41.65
39593;BME280;25286;48.870;9.084;2022-08-21T11:56:07;97931.44;;;24.30;41.36
39593;BME280;25286;48.870;9.084;2022-08-21T11:58:45;97931.16;;;24.61;41.52
39593;BME280;25286;48.870;9.084;2022-08-21T12:01:17;97931.38;;;24.77;41.42
39593;BME280;25286;48.870;9.084;2022-08-21T12:06:31;97935.47;;;24.88;41.06
39593;BME280;25286;48.870;9.084;2022-08-21T12:09:01;97929.84;;;24.88;40.44
39593;BME280;25286;48.870;9.084;2022-08-21T12:11:27;97922.97;;;24.77;40.30
39593;BME280;25286;48.870;9.084;2022-08-21T12:16:42;97924.63;;;25.07;41.14
39593;BME280;25286;48.870;9.084;2022-08-21T12:19:30;97930.59;;;24.97;41.03
39593;BME280;25286;48.870;9.084;2022-08-21T12:22:14;97917.66;;;25.05;40.33
39593;BME280;25286;48.870;9.084;2022-08-21T12:24:49;97915.88;;;25.00;40.14
39593;BME280;25286;48.870;9.084;2022-08-21T12:30:05;97904.25;;;25.31;39.71
39593;BME280;25286;48.870;9.084;2022-08-21T12:32:45;97901.16;;;25.24;39.37
39593;BME280;25286;48.870;9.084;2022-08-21T12:35:20;97900.00;;;25.04;39.49
39593;BME280;25286;48.870;9.084;2022-08-21T12:37:56;97895.03;;;25.01;39.12
39593;BME280;25286;48.870;9.084;2022-08-21T12:40:30;97893.81;;;24.90;38.97
39593;BME280;25286;48.870;9.084;2022-08-21T12:42:58;97889.44;;;25.01;39.22
39593;BME280;25286;48.870;9.084;2022-08-21T12:45:30;97887.97;;;25.25;39.19
39593;BME280;25286;48.870;9.084;2022-08-21T12:50:45;97888.91;;;25.29;38.53
39593;BME280;25286;48.870;9.084;2022-08-21T12:55:52;97885.47;;;25.44;38.40
39593;BME280;25286;48.870;9.084;2022-08-21T12:58:21;97883.03;;;25.55;38.44
39593;BME280;25286;48.870;9.084;2022-08-21T13:00:52;97886.03;;;25.71;38.28
39593;BME280;25286;48.870;9.084;2022-08-21T13:03:18;97884.69;;;25.77;38.54
39593;BME280;25286;48.870;9.084;2022-08-21T13:05:44;97880.22;;;25.76;38.05
39593;BME280;25286;48.870;9.084;2022-08-21T13:08:11;97884.69;;;25.77;38.37
39593;BME280;25286;48.870;9.084;2022-08-21T13:10:39;97878.81;;;25.82;38.01
39593;BME280;25286;48.870;9.084;2022-08-21T13:13:08;97880.00;;;25.81;38.27
39593;BME280;25286;48.870;9.084;2022-08-21T13:15:37;97894.19;;;25.64;38.10
39593;BME280;25286;48.870;9.084;2022-08-21T13:18:05;97876.06;;;25.94;37.71
39593;BME280;25286;48.870;9.084;2022-08-21T13:20:36;97883.06;;;26.00;37.59
39593;BME280;25286;48.870;9.084;2022-08-21T13:25:44;97884.59;;;25.98;37.78
39593;BME280;25286;48.870;9.084;2022-08-21T13:28:11;97877.72;;;25.74;37.29
39593;BME280;25286;48.870;9.084;2022-08-21T13:30:52;97870.31;;;26.15;37.18
39593;BME280;25286;48.870;9.084;2022-08-21T13:33:22;97882.38;;;26.16;37.50
39593;BME280;25286;48.870;9.084;2022-08-21T13:35:50;97872.81;;;26.17;37.09
39593;BME280;25286;48.870;9.084;2022-08-21T13:38:20;97874.22;;;26.35;37.12
39593;BME280;25286;48.870;9.084;2022-08-21T13:41:08;97870.94;;;26.57;36.86
39593;BME280;25286;48.870;9.084;2022-08-21T13:43:36;97862.97;;;26.47;37.07
39593;BME280;25286;48.870;9.084;2022-08-21T13:46:07;97870.69;;;26.75;36.79
39593;BME280;25286;48.870;9.084;2022-08-21T13:48:35;97858.38;;;27.20;36.54
39593;BME280;25286;48.870;9.084;2022-08-21T13:51:02;97862.66;;;27.01;36.31
39593;BME280;25286;48.870;9.084;2022-08-21T13:55:56;97855.84;;;27.15;36.47
39593;BME280;25286;48.870;9.084;2022-08-21T13:58:41;97854.44;;;27.08;36.49
39593;BME280;25286;48.870;9.084;2022-08-21T14:01:36;97857.38;;;27.00;37.06
39593;BME280;25286;48.870;9.084;2022-08-21T14:06:42;97854.50;;;27.24;35.97
39593;BME280;25286;48.870;9.084;2022-08-21T14:09:13;97851.72;;;27.12;35.82
39593;BME280;25286;48.870;9.084;2022-08-21T14:11:46;97860.34;;;27.59;35.37
39593;BME280;25286;48.870;9.084;2022-08-21T14:14:25;97845.94;;;27.49;34.88
39593;BME280;25286;48.870;9.084;2022-08-21T14:16:57;97846.75;;;27.93;35.02
39593;BME280;25286;48.870;9.084;2022-08-21T14:25:12;97839.56;;;27.36;35.02
39593;BME280;25286;48.870;9.084;2022-08-21T14:27:44;97837.69;;;28.00;35.10
39593;BME280;25286;48.870;9.084;2022-08-21T14:30:34;97823.94;;;28.14;34.61
39593;BME280;25286;48.870;9.084;2022-08-21T14:33:02;97836.78;;;28.27;33.73
39593;BME280;25286;48.870;9.084;2022-08-21T14:35:29;97829.31;;;28.35;34.10
39593;BME280;25286;48.870;9.084;2022-08-21T14:37:55;97832.03;;;27.84;33.93
39593;BME280;25286;48.870;9.084;2022-08-21T14:40:23;97835.03;;;27.91;34.49
39593;BME280;25286;48.870;9.084;2022-08-21T14:42:49;97825.16;;;27.25;35.69